createdAt,value
2017-07-06T00:01:02.741Z,97.60
2017-07-06T00:03:29.650Z,98.40
2017-07-06T00:05:55.864Z,98.10
2017-07-06T00:08:22.047Z,98.30
2017-07-06T00:10:48.224Z,98.20
2017-07-06T00:13:14.499Z,98.50
2017-07-06T00:15:40.680Z,99.00
2017-07-06T00:18:06.870Z,99.30
2017-07-06T00:20:33.065Z,99.30
2017-07-06T00:22:59.263Z,99.60
2017-07-06T00:25:25.436Z,99.80
2017-07-06T00:27:51.654Z,99.90
2017-07-06T00:30:17.845Z,99.90
2017-07-06T00:32:44.025Z,99.90
2017-07-06T00:35:10.235Z,99.90
2017-07-06T00:37:37.155Z,99.90
2017-07-06T00:40:03.325Z,99.90
2017-07-06T00:42:29.750Z,99.90
2017-07-06T00:44:56.692Z,99.90
2017-07-06T00:47:23.601Z,99.90
2017-07-06T00:49:49.828Z,99.90
2017-07-06T00:52:16.003Z,99.90
2017-07-06T00:54:42.189Z,99.90
2017-07-06T00:57:08.420Z,99.90
2017-07-06T00:59:34.605Z,99.90
2017-07-06T01:02:00.793Z,99.90
2017-07-06T01:04:27.000Z,99.90
2017-07-06T01:06:53.181Z,99.90
2017-07-06T01:09:19.409Z,99.90
2017-07-06T01:11:45.647Z,99.90
2017-07-06T01:14:11.796Z,99.90
2017-07-06T01:16:38.006Z,99.90
2017-07-06T01:19:04.205Z,99.90
2017-07-06T01:21:30.373Z,99.90
2017-07-06T01:23:56.670Z,99.90
2017-07-06T01:26:22.887Z,99.90
2017-07-06T01:28:49.056Z,99.90
2017-07-06T01:31:15.257Z,99.90
2017-07-06T01:33:41.469Z,99.90
2017-07-06T01:36:07.664Z,99.90
2017-07-06T01:38:34.609Z,99.90
2017-07-06T01:41:01.568Z,99.90
2017-07-06T01:43:27.775Z,99.90
2017-07-06T01:45:54.004Z,99.90
2017-07-06T01:48:21.015Z,99.90
2017-07-06T01:50:47.240Z,99.90
2017-07-06T01:53:13.465Z,99.90
2017-07-06T01:55:39.720Z,99.90
2017-07-06T01:58:05.928Z,99.90
2017-07-06T02:00:32.142Z,99.90
2017-07-06T02:02:58.389Z,99.90
2017-07-06T02:05:25.336Z,99.90
2017-07-06T02:07:51.511Z,99.90
2017-07-06T02:10:17.713Z,99.90
2017-07-06T02:12:44.287Z,99.90
2017-07-06T02:15:10.472Z,99.90
2017-07-06T02:17:36.653Z,99.90
2017-07-06T02:20:02.874Z,99.90
2017-07-06T02:22:29.052Z,99.90
2017-07-06T02:24:55.243Z,99.90
2017-07-06T02:27:21.453Z,99.90
2017-07-06T02:29:47.676Z,99.90
2017-07-06T02:32:13.876Z,99.90
2017-07-06T02:34:40.108Z,99.90
2017-07-06T02:37:07.035Z,99.90
2017-07-06T02:39:33.243Z,99.90
2017-07-06T02:41:59.425Z,99.90
2017-07-06T02:44:25.600Z,99.90
2017-07-06T02:46:51.792Z,99.90
2017-07-06T02:49:18.029Z,99.90
2017-07-06T02:51:44.216Z,99.90
2017-07-06T02:54:10.384Z,99.90
2017-07-06T02:56:36.648Z,99.90
2017-07-06T02:59:03.591Z,99.90
2017-07-06T03:01:29.801Z,99.90
2017-07-06T03:03:55.972Z,99.90
2017-07-06T03:06:22.170Z,99.90
2017-07-06T03:08:48.348Z,99.90
2017-07-06T03:11:14.576Z,99.90
2017-07-06T03:13:40.757Z,99.90
2017-07-06T03:16:07.682Z,99.90
2017-07-06T03:18:33.871Z,99.90
2017-07-06T03:21:00.102Z,99.90
2017-07-06T03:23:26.314Z,99.90
2017-07-06T03:25:52.489Z,99.90
2017-07-06T03:28:18.661Z,99.90
2017-07-06T03:30:44.872Z,99.90
2017-07-06T03:33:11.050Z,99.90
2017-07-06T03:35:37.232Z,99.90
2017-07-06T03:38:03.452Z,99.90
2017-07-06T03:40:29.616Z,99.90
2017-07-06T03:42:55.787Z,99.90
2017-07-06T03:45:21.988Z,99.90
2017-07-06T03:47:48.164Z,99.90
2017-07-06T03:50:14.379Z,99.90
2017-07-06T03:52:40.579Z,99.90
2017-07-06T03:55:06.781Z,99.90
2017-07-06T03:57:32.992Z,99.90
2017-07-06T03:59:59.267Z,99.90
2017-07-06T04:02:25.447Z,99.90
2017-07-06T04:04:51.702Z,99.90
2017-07-06T04:07:17.877Z,99.90
2017-07-06T04:09:44.048Z,99.90
2017-07-06T04:12:10.247Z,99.90
2017-07-06T04:14:36.483Z,99.90
2017-07-06T04:17:02.693Z,99.90
2017-07-06T04:19:28.865Z,99.90
2017-07-06T04:21:55.073Z,99.90
2017-07-06T04:24:21.283Z,99.90
2017-07-06T04:26:47.508Z,99.90
2017-07-06T04:29:13.689Z,99.90
2017-07-06T04:31:39.875Z,99.90
2017-07-06T04:34:06.069Z,99.90
2017-07-06T04:36:32.990Z,99.90
2017-07-06T04:38:59.262Z,99.90
2017-07-06T04:41:25.447Z,99.90
2017-07-06T04:43:51.616Z,99.90
2017-07-06T04:46:17.836Z,99.90
2017-07-06T04:48:44.032Z,99.90
2017-07-06T04:51:10.222Z,99.90
2017-07-06T04:53:36.450Z,99.90
2017-07-06T04:56:02.631Z,99.90
2017-07-06T04:58:28.824Z,99.90
2017-07-06T05:00:55.043Z,99.90
2017-07-06T05:03:21.228Z,99.90
2017-07-06T05:05:47.443Z,99.90
2017-07-06T05:08:14.367Z,99.90
2017-07-06T05:10:41.284Z,99.90
2017-07-06T05:13:07.485Z,99.90
2017-07-06T05:15:33.664Z,99.90
2017-07-06T05:18:00.603Z,99.90
2017-07-06T05:20:26.777Z,99.90
2017-07-06T05:22:52.984Z,99.90
2017-07-06T05:25:19.161Z,99.90
2017-07-06T05:27:45.343Z,99.90
2017-07-06T05:30:11.552Z,99.90
2017-07-06T05:32:38.546Z,99.90
2017-07-06T05:35:05.452Z,99.30
2017-07-06T05:37:31.633Z,99.20
2017-07-06T05:39:57.857Z,98.00
2017-07-06T05:42:24.028Z,98.10
2017-07-06T05:44:50.998Z,96.60
2017-07-06T05:47:17.168Z,96.60
2017-07-06T05:49:43.351Z,97.00
2017-07-06T05:52:09.551Z,97.30
2017-07-06T05:54:36.461Z,96.60
2017-07-06T05:57:02.648Z,96.50
2017-07-06T05:59:28.844Z,95.80
2017-07-06T06:01:55.763Z,95.60
2017-07-06T06:04:21.957Z,95.60
2017-07-06T06:06:48.128Z,95.20
2017-07-06T06:09:14.317Z,94.80
2017-07-06T06:11:40.550Z,94.50
2017-07-06T06:14:06.731Z,94.60
2017-07-06T06:16:33.672Z,93.10
2017-07-06T06:19:00.691Z,91.90
2017-07-06T06:21:26.874Z,91.90
2017-07-06T06:23:53.050Z,91.70
2017-07-06T06:26:19.298Z,91.30
2017-07-06T06:28:46.213Z,90.80
2017-07-06T06:31:12.394Z,90.80
2017-07-06T06:33:38.579Z,90.50
2017-07-06T06:36:04.801Z,90.40
2017-07-06T06:38:31.019Z,90.20
2017-07-06T06:40:57.208Z,88.90
2017-07-06T06:43:23.384Z,86.20
2017-07-06T06:45:49.589Z,80.90
2017-07-06T06:48:15.800Z,79.00
2017-07-06T06:50:42.792Z,74.40
2017-07-06T06:53:08.962Z,72.30
2017-07-06T06:55:35.163Z,73.10
2017-07-06T06:58:01.348Z,73.60
2017-07-06T07:00:27.556Z,72.10
2017-07-06T07:02:53.759Z,71.30
2017-07-06T07:05:19.993Z,67.60
2017-07-06T07:07:46.181Z,64.60
2017-07-06T07:10:13.120Z,62.90
2017-07-06T07:12:39.307Z,62.20
2017-07-06T07:15:05.520Z,60.80
2017-07-06T07:17:31.717Z,58.70
2017-07-06T07:19:58.638Z,57.60
2017-07-06T07:22:24.887Z,57.60
2017-07-06T07:24:51.805Z,55.90
2017-07-06T07:27:18.027Z,55.90
2017-07-06T07:29:44.246Z,53.70
2017-07-06T07:32:10.419Z,52.20
2017-07-06T07:34:37.340Z,51.50
2017-07-06T07:37:03.785Z,51.50
2017-07-06T07:39:30.708Z,50.80
2017-07-06T07:41:56.892Z,50.80
2017-07-06T07:44:23.107Z,50.10
2017-07-06T07:46:49.320Z,50.10
2017-07-06T07:49:15.496Z,48.90
2017-07-06T07:51:41.693Z,49.00
2017-07-06T07:54:07.888Z,48.20
2017-07-06T07:56:34.833Z,47.90
2017-07-06T07:59:01.759Z,46.60
2017-07-06T08:01:27.980Z,46.50
2017-07-06T08:03:54.207Z,46.40
2017-07-06T08:06:20.393Z,45.50
2017-07-06T08:08:46.583Z,45.60
2017-07-06T08:11:13.521Z,44.30
2017-07-06T08:13:39.730Z,44.30
2017-07-06T08:16:05.954Z,44.10
2017-07-06T08:18:32.205Z,43.70
2017-07-06T08:20:58.384Z,43.50
2017-07-06T08:23:24.596Z,41.30
2017-07-06T08:25:50.816Z,41.20
2017-07-06T08:28:17.025Z,40.20
2017-07-06T08:30:43.949Z,41.20
2017-07-06T08:33:10.124Z,41.20
2017-07-06T08:35:36.320Z,40.40
2017-07-06T08:38:03.276Z,39.40
2017-07-06T08:40:30.193Z,38.70
2017-07-06T08:42:56.384Z,38.60
2017-07-06T08:45:22.589Z,38.00
2017-07-06T08:47:48.765Z,39.10
2017-07-06T08:50:14.976Z,37.20
2017-07-06T08:52:41.242Z,34.00
2017-07-06T08:55:07.508Z,34.80
2017-07-06T08:57:33.685Z,33.00
2017-07-06T08:59:59.876Z,32.10
2017-07-06T09:02:26.083Z,32.30
2017-07-06T09:04:52.284Z,32.00
2017-07-06T09:07:19.229Z,30.00
2017-07-06T09:09:46.149Z,29.60
2017-07-06T09:12:12.459Z,29.60
2017-07-06T09:14:38.653Z,29.90
2017-07-06T09:17:04.832Z,28.80
2017-07-06T09:19:31.052Z,28.00
2017-07-06T09:21:57.223Z,29.50
2017-07-06T09:24:23.403Z,29.40
2017-07-06T09:26:49.666Z,29.00
2017-07-06T09:29:16.629Z,28.90
2017-07-06T09:31:42.804Z,28.80
2017-07-06T09:34:09.061Z,29.00
2017-07-06T09:36:35.989Z,27.10
2017-07-06T09:39:02.283Z,27.10
2017-07-06T09:41:28.489Z,27.30
2017-07-06T09:43:54.669Z,27.00
2017-07-06T09:46:20.847Z,26.50
2017-07-06T09:48:47.050Z,26.80
2017-07-06T09:51:13.956Z,27.20
2017-07-06T09:53:40.161Z,27.20
2017-07-06T09:56:06.365Z,27.10
2017-07-06T09:58:32.597Z,27.30
2017-07-06T10:00:58.805Z,28.90
2017-07-06T10:03:25.720Z,28.40
2017-07-06T10:05:52.053Z,28.30
2017-07-06T10:08:18.345Z,28.00
2017-07-06T10:10:44.519Z,27.90
2017-07-06T10:13:10.811Z,28.40
2017-07-06T10:15:37.004Z,30.50
2017-07-06T10:18:03.509Z,29.80
2017-07-06T10:20:29.733Z,30.60
2017-07-06T10:22:55.948Z,32.00
2017-07-06T10:25:22.140Z,30.60
2017-07-06T10:27:48.348Z,32.30
2017-07-06T10:30:14.561Z,31.70
2017-07-06T10:32:41.485Z,31.00
2017-07-06T10:35:07.706Z,31.00
2017-07-06T10:37:33.893Z,31.60
2017-07-06T10:40:00.077Z,31.40
2017-07-06T10:42:27.026Z,29.80
2017-07-06T10:44:53.997Z,29.20
2017-07-06T10:47:20.161Z,29.10
2017-07-06T10:49:46.357Z,27.50
2017-07-06T10:52:12.561Z,27.00
2017-07-06T10:54:38.781Z,27.60
2017-07-06T10:57:05.728Z,27.90
2017-07-06T10:59:32.670Z,28.00
2017-07-06T11:01:59.632Z,28.80
2017-07-06T11:04:25.789Z,28.80
2017-07-06T11:06:52.011Z,28.50
2017-07-06T11:09:18.217Z,29.50
2017-07-06T11:11:44.396Z,32.10
2017-07-06T11:14:10.609Z,33.10
2017-07-06T11:16:36.861Z,35.50
2017-07-06T11:19:03.027Z,37.30
2017-07-06T11:21:29.242Z,44.00
2017-07-06T11:23:55.421Z,40.10
2017-07-06T11:26:21.610Z,42.30
2017-07-06T11:28:47.840Z,45.30
2017-07-06T11:31:14.038Z,47.30
2017-07-06T11:33:40.960Z,48.80
2017-07-06T11:36:07.185Z,48.60
2017-07-06T11:38:33.373Z,48.30
2017-07-06T11:40:59.593Z,47.20
2017-07-06T11:43:25.837Z,43.60
2017-07-06T11:45:52.162Z,42.10
2017-07-06T11:48:18.374Z,40.30
2017-07-06T11:50:44.613Z,38.80
2017-07-06T11:53:10.784Z,37.80
2017-07-06T11:55:37.000Z,37.60
2017-07-06T11:58:03.177Z,37.80
2017-07-06T12:00:29.368Z,35.60
2017-07-06T12:02:55.576Z,33.50
2017-07-06T12:05:21.752Z,36.80
2017-07-06T12:07:47.920Z,34.80
2017-07-06T12:10:14.150Z,35.60
2017-07-06T12:12:40.368Z,36.50
2017-07-06T12:15:06.575Z,35.70
2017-07-06T12:17:32.789Z,35.40
2017-07-06T12:19:58.962Z,36.10
2017-07-06T12:22:25.199Z,36.90
2017-07-06T12:24:51.372Z,34.90
2017-07-06T12:27:17.586Z,35.80
2017-07-06T12:29:44.593Z,37.20
2017-07-06T12:32:10.819Z,37.20
2017-07-06T12:34:37.001Z,37.10
2017-07-06T12:37:03.221Z,37.40
2017-07-06T12:39:29.396Z,36.90
2017-07-06T12:41:55.587Z,37.10
2017-07-06T12:44:22.151Z,37.50
2017-07-06T12:46:48.335Z,37.50
2017-07-06T12:49:15.268Z,38.40
2017-07-06T12:51:42.221Z,36.40
2017-07-06T12:54:08.409Z,36.30
2017-07-06T12:56:34.600Z,36.80
2017-07-06T12:59:00.763Z,36.30
2017-07-06T13:01:26.969Z,36.20
2017-07-06T13:03:53.148Z,36.50
2017-07-06T13:06:20.139Z,37.90
2017-07-06T13:08:46.324Z,37.90
2017-07-06T13:11:13.243Z,39.10
2017-07-06T13:13:39.438Z,39.10
2017-07-06T13:16:05.615Z,40.30
2017-07-06T13:18:31.832Z,41.60
2017-07-06T13:20:58.029Z,43.10
2017-07-06T13:23:24.246Z,43.60
2017-07-06T13:25:50.464Z,43.60
2017-07-06T13:28:16.680Z,42.50
2017-07-06T13:30:42.889Z,41.30
2017-07-06T13:33:09.807Z,41.60
2017-07-06T13:35:36.728Z,40.90
2017-07-06T13:38:03.401Z,41.40
2017-07-06T13:40:30.317Z,43.20
2017-07-06T13:42:56.493Z,43.20
2017-07-06T13:45:22.687Z,44.70
2017-07-06T13:47:48.905Z,46.60
2017-07-06T13:50:15.132Z,48.30
2017-07-06T13:52:41.371Z,46.80
2017-07-06T13:55:07.560Z,47.50
2017-07-06T13:57:33.728Z,46.40
2017-07-06T13:59:59.968Z,43.80
2017-07-06T14:02:26.133Z,42.60
2017-07-06T14:04:52.351Z,42.40
2017-07-06T14:07:18.570Z,41.40
2017-07-06T14:09:44.741Z,41.60
2017-07-06T14:12:10.915Z,42.00
2017-07-06T14:14:37.126Z,41.40
2017-07-06T14:17:03.297Z,40.10
2017-07-06T14:19:29.510Z,40.10
2017-07-06T14:21:55.691Z,40.70
2017-07-06T14:24:21.875Z,40.60
2017-07-06T14:26:48.080Z,41.40
2017-07-06T14:29:14.281Z,41.40
2017-07-06T14:31:41.188Z,41.00
2017-07-06T14:34:07.404Z,40.70
2017-07-06T14:36:33.592Z,40.70
2017-07-06T14:39:00.547Z,40.20
2017-07-06T14:41:26.743Z,40.10
2017-07-06T14:43:52.944Z,39.70
2017-07-06T14:46:19.124Z,38.40
2017-07-06T14:48:45.636Z,38.00
2017-07-06T14:51:11.834Z,38.80
2017-07-06T14:53:38.007Z,41.90
2017-07-06T14:56:04.982Z,46.80
2017-07-06T14:58:31.261Z,46.80
2017-07-06T15:00:57.445Z,47.70
2017-07-06T15:03:23.633Z,47.80
2017-07-06T15:05:50.584Z,47.90
2017-07-06T15:08:16.777Z,47.90
2017-07-06T15:10:42.944Z,48.60
2017-07-06T15:13:09.168Z,49.80
2017-07-06T15:15:35.328Z,49.80
2017-07-06T15:18:01.530Z,49.20
2017-07-06T15:20:27.768Z,48.90
2017-07-06T15:22:53.967Z,48.80
2017-07-06T15:25:20.233Z,49.50
2017-07-06T15:27:46.402Z,49.00
2017-07-06T15:30:13.320Z,50.00
2017-07-06T15:32:39.528Z,49.90
2017-07-06T15:35:05.744Z,49.20
2017-07-06T15:37:31.969Z,48.30
2017-07-06T15:39:58.153Z,48.80
2017-07-06T15:42:25.110Z,48.30
2017-07-06T15:44:51.297Z,48.00
2017-07-06T15:47:17.557Z,47.30
2017-07-06T15:49:43.764Z,47.60
2017-07-06T15:52:09.973Z,47.90
2017-07-06T15:54:36.176Z,47.30
2017-07-06T15:57:02.344Z,47.50
2017-07-06T15:59:28.560Z,46.90
2017-07-06T16:01:54.768Z,46.40
2017-07-06T16:04:20.954Z,46.50
2017-07-06T16:06:47.869Z,46.20
2017-07-06T16:09:14.073Z,46.20
2017-07-06T16:11:40.267Z,46.10
2017-07-06T16:14:06.504Z,45.40
2017-07-06T16:16:32.745Z,47.10
2017-07-06T16:18:58.927Z,47.90
2017-07-06T16:21:25.884Z,46.00
2017-07-06T16:23:52.059Z,45.80
2017-07-06T16:26:18.262Z,46.70
2017-07-06T16:28:44.521Z,45.20
2017-07-06T16:31:10.854Z,45.20
2017-07-06T16:33:37.096Z,46.80
2017-07-06T16:36:04.052Z,46.30
2017-07-06T16:38:30.244Z,46.30
2017-07-06T16:40:56.504Z,45.70
2017-07-06T16:43:22.683Z,44.40
2017-07-06T16:45:48.864Z,44.90
2017-07-06T16:48:15.797Z,44.80
2017-07-06T16:50:41.976Z,44.70
2017-07-06T16:53:08.216Z,42.80
2017-07-06T16:55:34.396Z,43.80
2017-07-06T16:58:00.604Z,42.70
2017-07-06T17:00:26.877Z,42.60
2017-07-06T17:02:53.056Z,42.90
2017-07-06T17:05:19.352Z,42.90
2017-07-06T17:07:45.565Z,43.00
2017-07-06T17:10:11.762Z,43.10
2017-07-06T17:12:38.733Z,42.90
2017-07-06T17:15:04.924Z,42.80
2017-07-06T17:17:31.916Z,44.00
2017-07-06T17:19:58.140Z,43.30
2017-07-06T17:22:24.359Z,44.50
2017-07-06T17:24:50.575Z,45.80
2017-07-06T17:27:16.780Z,46.20
2017-07-06T17:29:43.764Z,45.30
2017-07-06T17:32:09.952Z,45.30
2017-07-06T17:34:36.887Z,43.30
2017-07-06T17:37:03.127Z,43.30
2017-07-06T17:39:30.127Z,43.50
2017-07-06T17:41:56.308Z,43.30
2017-07-06T17:44:23.230Z,44.00
2017-07-06T17:46:49.515Z,43.90
2017-07-06T17:49:15.714Z,43.90
2017-07-06T17:51:41.922Z,44.70
2017-07-06T17:54:08.905Z,44.20
2017-07-06T17:56:35.185Z,44.10
2017-07-06T17:59:01.399Z,44.50
2017-07-06T18:01:27.618Z,44.20
2017-07-06T18:03:53.904Z,44.30
2017-07-06T18:06:20.124Z,44.10
2017-07-06T18:08:46.313Z,43.90
2017-07-06T18:11:12.553Z,43.90
2017-07-06T18:13:38.777Z,43.70
2017-07-06T18:16:04.988Z,43.60
2017-07-06T18:18:31.193Z,44.20
2017-07-06T18:20:57.398Z,44.10
2017-07-06T18:23:23.601Z,44.70
2017-07-06T18:25:50.566Z,45.30
2017-07-06T18:28:16.752Z,45.30
2017-07-06T18:30:42.957Z,45.90
2017-07-06T18:33:09.199Z,46.10
2017-07-06T18:35:35.417Z,46.40
2017-07-06T18:38:01.689Z,46.30
2017-07-06T18:40:27.876Z,45.70
2017-07-06T18:42:54.101Z,47.00
2017-07-06T18:45:20.291Z,48.00
2017-07-06T18:47:46.476Z,48.40
2017-07-06T18:50:12.687Z,48.80
2017-07-06T18:52:38.869Z,48.50
2017-07-06T18:55:05.056Z,49.60
2017-07-06T18:57:31.240Z,50.90
2017-07-06T18:59:57.464Z,51.70
2017-07-06T19:02:23.672Z,52.50
2017-07-06T19:04:49.857Z,53.40
2017-07-06T19:07:16.106Z,52.30
2017-07-06T19:09:43.064Z,53.00
2017-07-06T19:12:09.281Z,52.90
2017-07-06T19:14:35.581Z,52.70
2017-07-06T19:17:01.790Z,52.50
2017-07-06T19:19:27.981Z,53.10
2017-07-06T19:21:54.221Z,53.10
2017-07-06T19:24:20.385Z,52.90
2017-07-06T19:26:46.577Z,53.30
2017-07-06T19:29:12.813Z,53.60
2017-07-06T19:31:38.993Z,53.60
2017-07-06T19:34:05.956Z,52.70
2017-07-06T19:36:32.154Z,52.70
2017-07-06T19:38:58.322Z,54.10
2017-07-06T19:41:24.581Z,54.80
2017-07-06T19:43:50.800Z,55.30
2017-07-06T19:46:17.034Z,55.50
2017-07-06T19:48:43.211Z,55.90
2017-07-06T19:51:09.401Z,55.80
2017-07-06T19:53:35.601Z,55.60
2017-07-06T19:56:01.797Z,55.90
2017-07-06T19:58:28.007Z,55.80
2017-07-06T20:00:54.916Z,55.50
2017-07-06T20:03:21.110Z,55.40
2017-07-06T20:05:47.298Z,55.20
2017-07-06T20:08:14.228Z,55.80
2017-07-06T20:10:40.392Z,55.80
2017-07-06T20:13:06.599Z,55.80
2017-07-06T20:15:32.756Z,55.80
2017-07-06T20:17:58.945Z,55.90
2017-07-06T20:20:25.870Z,56.30
2017-07-06T20:22:52.090Z,55.70
2017-07-06T20:25:18.273Z,55.80
2017-07-06T20:27:44.465Z,56.20
2017-07-06T20:30:10.677Z,56.10
2017-07-06T20:32:36.846Z,56.10
2017-07-06T20:35:03.024Z,56.10
2017-07-06T20:37:29.266Z,56.30
2017-07-06T20:39:55.460Z,56.20
2017-07-06T20:42:21.667Z,56.10
2017-07-06T20:44:47.843Z,56.30
2017-07-06T20:47:14.017Z,56.50
2017-07-06T20:49:40.274Z,56.50
2017-07-06T20:52:06.459Z,56.30
2017-07-06T20:54:32.655Z,56.10
2017-07-06T20:56:58.857Z,56.50
2017-07-06T20:59:25.320Z,56.80
2017-07-06T21:01:51.572Z,57.50
2017-07-06T21:04:17.764Z,57.90
2017-07-06T21:06:43.977Z,58.80
2017-07-06T21:09:10.184Z,58.80
2017-07-06T21:11:36.357Z,59.10
2017-07-06T21:14:02.542Z,59.20
2017-07-06T21:16:28.739Z,59.70
2017-07-06T21:18:54.916Z,59.70
2017-07-06T21:21:21.133Z,60.00
2017-07-06T21:23:47.310Z,60.20
2017-07-06T21:26:14.223Z,60.70
2017-07-06T21:28:40.424Z,60.70
2017-07-06T21:31:06.583Z,61.30
2017-07-06T21:33:33.494Z,62.00
2017-07-06T21:35:59.691Z,61.60
2017-07-06T21:38:25.847Z,62.40
2017-07-06T21:40:52.013Z,63.10
2017-07-06T21:43:18.960Z,65.60
2017-07-06T21:45:45.871Z,65.00
2017-07-06T21:48:12.072Z,64.80
2017-07-06T21:50:38.247Z,65.20
2017-07-06T21:53:04.439Z,64.80
2017-07-06T21:55:30.645Z,64.70
2017-07-06T21:57:56.830Z,64.70
2017-07-06T22:00:23.051Z,64.90
2017-07-06T22:02:49.244Z,65.40
2017-07-06T22:05:15.450Z,65.70
2017-07-06T22:07:41.628Z,66.00
2017-07-06T22:10:07.839Z,66.30
2017-07-06T22:12:34.033Z,66.40
2017-07-06T22:15:00.197Z,66.60
2017-07-06T22:17:26.528Z,67.00
2017-07-06T22:19:52.725Z,67.40
2017-07-06T22:22:18.895Z,67.80
2017-07-06T22:24:45.090Z,68.30
2017-07-06T22:27:11.279Z,68.60
2017-07-06T22:29:37.452Z,69.00
2017-07-06T22:32:03.669Z,70.10
2017-07-06T22:34:29.844Z,69.40
2017-07-06T22:36:56.824Z,70.20
2017-07-06T22:39:23.042Z,70.10
2017-07-06T22:41:49.213Z,70.60
2017-07-06T22:44:15.405Z,70.70
2017-07-06T22:46:41.588Z,70.90
2017-07-06T22:49:07.783Z,71.00
2017-07-06T22:51:33.972Z,71.10
2017-07-06T22:54:00.163Z,71.40
2017-07-06T22:56:27.095Z,71.70
2017-07-06T22:58:53.369Z,71.70
2017-07-06T23:01:19.587Z,72.00
2017-07-06T23:03:45.770Z,72.50
2017-07-06T23:06:11.945Z,72.20
2017-07-06T23:08:38.148Z,72.80
2017-07-06T23:11:04.347Z,72.60
2017-07-06T23:13:30.553Z,72.80
2017-07-06T23:15:56.720Z,73.00
2017-07-06T23:18:22.899Z,73.40
2017-07-06T23:20:49.072Z,74.10
2017-07-06T23:23:15.232Z,73.90
2017-07-06T23:25:41.419Z,74.60
2017-07-06T23:28:07.579Z,74.50
2017-07-06T23:30:33.783Z,74.90
2017-07-06T23:32:59.979Z,74.80
2017-07-06T23:35:26.201Z,74.90
2017-07-06T23:37:52.388Z,75.20
2017-07-06T23:40:18.577Z,74.80
2017-07-06T23:42:44.772Z,75.60
2017-07-06T23:45:10.936Z,76.40
2017-07-06T23:47:37.109Z,76.20
2017-07-06T23:50:03.338Z,75.80
2017-07-06T23:52:29.500Z,75.90
2017-07-06T23:54:55.691Z,76.10
2017-07-06T23:57:21.945Z,76.60
2017-07-06T23:59:48.119Z,77.00
